sensor_id;sensor_type;location;lat;lon;timestamp;P1;durP1;ratioP1;P2;durP2;ratioP2
59486;SDS011;45298;54.918;73.504;2023-07-02T00:01:23;13.68;;;9.00;;
59486;SDS011;45298;54.918;73.504;2023-07-02T00:03:52;5.28;;;2.30;;
59486;SDS011;45298;54.918;73.504;2023-07-02T00:06:21;6.88;;;3.65;;
59486;SDS011;45298;54.918;73.504;2023-07-02T00:08:53;3.58;;;1.80;;
59486;SDS011;45298;54.918;73.504;2023-07-02T00:11:22;5.90;;;2.45;;
59486;SDS011;45298;54.918;73.504;2023-07-02T00:13:51;3.28;;;1.95;;
59486;SDS011;45298;54.918;73.504;2023-07-02T00:16:20;4.85;;;2.58;;
59486;SDS011;45298;54.918;73.504;2023-07-02T00:18:48;7.75;;;2.22;;
59486;SDS011;45298;54.918;73.504;2023-07-02T00:21:20;6.55;;;3.17;;
59486;SDS011;45298;54.918;73.504;2023-07-02T00:23:50;6.93;;;2.88;;
59486;SDS011;45298;54.918;73.504;2023-07-02T00:26:19;3.72;;;2.10;;
59486;SDS011;45298;54.918;73.504;2023-07-02T00:28:48;4.88;;;2.20;;
59486;SDS011;45298;54.918;73.504;2023-07-02T00:31:17;8.60;;;3.92;;
59486;SDS011;45298;54.918;73.504;2023-07-02T00:33:46;4.85;;;1.98;;
59486;SDS011;45298;54.918;73.504;2023-07-02T00:36:15;6.10;;;2.15;;
59486;SDS011;45298;54.918;73.504;2023-07-02T00:38:45;6.63;;;3.45;;
59486;SDS011;45298;54.918;73.504;2023-07-02T00:41:15;5.07;;;2.30;;
59486;SDS011;45298;54.918;73.504;2023-07-02T00:43:44;11.85;;;8.15;;
59486;SDS011;45298;54.918;73.504;2023-07-02T00:46:17;4.10;;;2.10;;
59486;SDS011;45298;54.918;73.504;2023-07-02T00:48:50;4.25;;;2.00;;
59486;SDS011;45298;54.918;73.504;2023-07-02T00:51:21;3.55;;;2.00;;
59486;SDS011;45298;54.918;73.504;2023-07-02T00:53:55;3.63;;;1.80;;
59486;SDS011;45298;54.918;73.504;2023-07-02T00:56:25;4.63;;;1.90;;
59486;SDS011;45298;54.918;73.504;2023-07-02T00:58:55;4.38;;;2.22;;
59486;SDS011;45298;54.918;73.504;2023-07-02T01:01:26;4.50;;;3.03;;
59486;SDS011;45298;54.918;73.504;2023-07-02T01:04:03;3.67;;;2.00;;
59486;SDS011;45298;54.918;73.504;2023-07-02T01:06:36;5.00;;;2.00;;
59486;SDS011;45298;54.918;73.504;2023-07-02T01:09:09;7.95;;;3.20;;
59486;SDS011;45298;54.918;73.504;2023-07-02T01:14:44;8.85;;;3.45;;
59486;SDS011;45298;54.918;73.504;2023-07-02T01:17:18;8.40;;;2.72;;
59486;SDS011;45298;54.918;73.504;2023-07-02T01:19:49;10.50;;;2.78;;
59486;SDS011;45298;54.918;73.504;2023-07-02T01:22:22;4.82;;;2.28;;
59486;SDS011;45298;54.918;73.504;2023-07-02T01:24:53;5.20;;;2.42;;
59486;SDS011;45298;54.918;73.504;2023-07-02T01:27:22;6.30;;;2.58;;
59486;SDS011;45298;54.918;73.504;2023-07-02T01:29:54;4.78;;;2.25;;
59486;SDS011;45298;54.918;73.504;2023-07-02T01:32:23;3.95;;;2.00;;
59486;SDS011;45298;54.918;73.504;2023-07-02T01:34:52;10.45;;;2.15;;
59486;SDS011;45298;54.918;73.504;2023-07-02T01:37:21;4.28;;;1.92;;
59486;SDS011;45298;54.918;73.504;2023-07-02T01:39:50;5.65;;;1.80;;
59486;SDS011;45298;54.918;73.504;2023-07-02T01:42:19;8.50;;;1.92;;
59486;SDS011;45298;54.918;73.504;2023-07-02T01:44:49;4.40;;;1.55;;
59486;SDS011;45298;54.918;73.504;2023-07-02T01:47:19;6.78;;;1.70;;
59486;SDS011;45298;54.918;73.504;2023-07-02T01:49:50;5.68;;;1.80;;
59486;SDS011;45298;54.918;73.504;2023-07-02T01:52:19;4.15;;;1.52;;
59486;SDS011;45298;54.918;73.504;2023-07-02T01:54:48;4.72;;;1.50;;
59486;SDS011;45298;54.918;73.504;2023-07-02T01:57:17;10.27;;;2.08;;
59486;SDS011;45298;54.918;73.504;2023-07-02T01:59:47;5.25;;;1.85;;
59486;SDS011;45298;54.918;73.504;2023-07-02T02:02:15;5.60;;;1.60;;
59486;SDS011;45298;54.918;73.504;2023-07-02T02:04:44;4.57;;;2.38;;
59486;SDS011;45298;54.918;73.504;2023-07-02T02:07:13;4.15;;;1.90;;
59486;SDS011;45298;54.918;73.504;2023-07-02T02:09:42;3.35;;;1.70;;
59486;SDS011;45298;54.918;73.504;2023-07-02T02:12:11;6.90;;;5.05;;
59486;SDS011;45298;54.918;73.504;2023-07-02T02:14:41;2.15;;;1.40;;
59486;SDS011;45298;54.918;73.504;2023-07-02T02:17:11;4.50;;;1.63;;
59486;SDS011;45298;54.918;73.504;2023-07-02T02:19:40;6.35;;;2.17;;
59486;SDS011;45298;54.918;73.504;2023-07-02T02:22:09;3.78;;;1.73;;
59486;SDS011;45298;54.918;73.504;2023-07-02T02:24:39;4.75;;;1.70;;
59486;SDS011;45298;54.918;73.504;2023-07-02T02:27:08;4.82;;;1.55;;
59486;SDS011;45298;54.918;73.504;2023-07-02T02:29:37;2.63;;;1.40;;
59486;SDS011;45298;54.918;73.504;2023-07-02T02:32:06;6.47;;;1.70;;
59486;SDS011;45298;54.918;73.504;2023-07-02T02:34:36;5.50;;;1.75;;
59486;SDS011;45298;54.918;73.504;2023-07-02T02:37:05;4.68;;;1.50;;
59486;SDS011;45298;54.918;73.504;2023-07-02T02:39:36;3.22;;;1.60;;
59486;SDS011;45298;54.918;73.504;2023-07-02T02:42:05;4.63;;;1.77;;
59486;SDS011;45298;54.918;73.504;2023-07-02T02:44:34;5.40;;;1.98;;
59486;SDS011;45298;54.918;73.504;2023-07-02T02:47:04;3.95;;;2.08;;
59486;SDS011;45298;54.918;73.504;2023-07-02T02:49:37;5.63;;;1.80;;
59486;SDS011;45298;54.918;73.504;2023-07-02T02:52:07;4.85;;;2.15;;
59486;SDS011;45298;54.918;73.504;2023-07-02T02:54:36;6.82;;;1.73;;
59486;SDS011;45298;54.918;73.504;2023-07-02T02:57:05;3.75;;;1.73;;
59486;SDS011;45298;54.918;73.504;2023-07-02T02:59:37;3.40;;;1.40;;
59486;SDS011;45298;54.918;73.504;2023-07-02T03:02:06;6.65;;;2.05;;
59486;SDS011;45298;54.918;73.504;2023-07-02T03:04:35;4.15;;;2.03;;
59486;SDS011;45298;54.918;73.504;2023-07-02T03:07:09;5.50;;;1.90;;
59486;SDS011;45298;54.918;73.504;2023-07-02T03:09:38;4.55;;;1.80;;
59486;SDS011;45298;54.918;73.504;2023-07-02T03:12:08;4.90;;;1.73;;
59486;SDS011;45298;54.918;73.504;2023-07-02T03:14:38;25.80;;;2.10;;
59486;SDS011;45298;54.918;73.504;2023-07-02T03:17:09;2.92;;;1.83;;
59486;SDS011;45298;54.918;73.504;2023-07-02T03:19:39;4.47;;;2.50;;
59486;SDS011;45298;54.918;73.504;2023-07-02T03:22:08;4.18;;;1.60;;
59486;SDS011;45298;54.918;73.504;2023-07-02T03:24:37;4.05;;;1.58;;
59486;SDS011;45298;54.918;73.504;2023-07-02T03:27:07;3.75;;;1.70;;
59486;SDS011;45298;54.918;73.504;2023-07-02T03:29:36;6.07;;;1.92;;
59486;SDS011;45298;54.918;73.504;2023-07-02T03:32:06;3.38;;;1.88;;
59486;SDS011;45298;54.918;73.504;2023-07-02T03:34:36;6.70;;;1.70;;
59486;SDS011;45298;54.918;73.504;2023-07-02T03:37:05;6.53;;;1.80;;
59486;SDS011;45298;54.918;73.504;2023-07-02T03:39:35;1.85;;;1.48;;
59486;SDS011;45298;54.918;73.504;2023-07-02T03:42:05;7.53;;;2.08;;
59486;SDS011;45298;54.918;73.504;2023-07-02T03:44:34;3.80;;;1.85;;
59486;SDS011;45298;54.918;73.504;2023-07-02T03:47:03;5.43;;;1.40;;
59486;SDS011;45298;54.918;73.504;2023-07-02T03:49:32;3.20;;;1.60;;
59486;SDS011;45298;54.918;73.504;2023-07-02T03:52:03;6.88;;;1.58;;
59486;SDS011;45298;54.918;73.504;2023-07-02T03:54:32;5.75;;;1.50;;
59486;SDS011;45298;54.918;73.504;2023-07-02T03:57:01;7.07;;;1.80;;
59486;SDS011;45298;54.918;73.504;2023-07-02T03:59:30;3.88;;;1.50;;
59486;SDS011;45298;54.918;73.504;2023-07-02T04:02:02;7.80;;;1.70;;
59486;SDS011;45298;54.918;73.504;2023-07-02T04:04:31;12.65;;;2.28;;
59486;SDS011;45298;54.918;73.504;2023-07-02T04:07:03;10.80;;;1.80;;
59486;SDS011;45298;54.918;73.504;2023-07-02T04:09:33;7.35;;;1.73;;
59486;SDS011;45298;54.918;73.504;2023-07-02T04:12:02;12.15;;;2.08;;
59486;SDS011;45298;54.918;73.504;2023-07-02T04:14:31;7.10;;;1.70;;
59486;SDS011;45298;54.918;73.504;2023-07-02T04:17:01;8.40;;;1.90;;
59486;SDS011;45298;54.918;73.504;2023-07-02T04:19:31;4.28;;;1.58;;
59486;SDS011;45298;54.918;73.504;2023-07-02T04:22:00;6.40;;;1.83;;
59486;SDS011;45298;54.918;73.504;2023-07-02T04:24:30;2.97;;;1.67;;
59486;SDS011;45298;54.918;73.504;2023-07-02T04:27:00;3.40;;;1.60;;
59486;SDS011;45298;54.918;73.504;2023-07-02T04:29:49;5.65;;;1.70;;
59486;SDS011;45298;54.918;73.504;2023-07-02T04:32:18;5.65;;;1.70;;
59486;SDS011;45298;54.918;73.504;2023-07-02T04:34:47;2.58;;;1.45;;
59486;SDS011;45298;54.918;73.504;2023-07-02T04:37:16;7.55;;;1.70;;
59486;SDS011;45298;54.918;73.504;2023-07-02T04:39:45;7.18;;;1.67;;
59486;SDS011;45298;54.918;73.504;2023-07-02T04:42:13;3.35;;;1.70;;
59486;SDS011;45298;54.918;73.504;2023-07-02T04:44:43;4.68;;;2.03;;
59486;SDS011;45298;54.918;73.504;2023-07-02T04:47:12;5.68;;;2.72;;
59486;SDS011;45298;54.918;73.504;2023-07-02T04:49:41;7.05;;;4.70;;
59486;SDS011;45298;54.918;73.504;2023-07-02T04:52:10;4.25;;;2.10;;
59486;SDS011;45298;54.918;73.504;2023-07-02T04:54:39;4.25;;;2.25;;
59486;SDS011;45298;54.918;73.504;2023-07-02T04:57:10;8.98;;;2.45;;
59486;SDS011;45298;54.918;73.504;2023-07-02T04:59:42;4.97;;;1.92;;
59486;SDS011;45298;54.918;73.504;2023-07-02T05:02:11;4.20;;;2.00;;
59486;SDS011;45298;54.918;73.504;2023-07-02T05:04:41;7.38;;;2.40;;
59486;SDS011;45298;54.918;73.504;2023-07-02T05:07:10;3.85;;;1.90;;
59486;SDS011;45298;54.918;73.504;2023-07-02T05:09:39;5.20;;;2.10;;
59486;SDS011;45298;54.918;73.504;2023-07-02T05:12:10;2.25;;;1.90;;
59486;SDS011;45298;54.918;73.504;2023-07-02T05:14:39;3.60;;;2.00;;
59486;SDS011;45298;54.918;73.504;2023-07-02T05:17:09;6.20;;;2.85;;
59486;SDS011;45298;54.918;73.504;2023-07-02T05:19:38;4.80;;;2.17;;
59486;SDS011;45298;54.918;73.504;2023-07-02T05:22:09;7.82;;;2.10;;
59486;SDS011;45298;54.918;73.504;2023-07-02T05:24:38;4.45;;;2.17;;
59486;SDS011;45298;54.918;73.504;2023-07-02T05:27:09;4.25;;;2.30;;
59486;SDS011;45298;54.918;73.504;2023-07-02T05:29:40;4.18;;;2.40;;
59486;SDS011;45298;54.918;73.504;2023-07-02T05:32:09;6.45;;;2.33;;
59486;SDS011;45298;54.918;73.504;2023-07-02T05:34:38;6.50;;;2.50;;
59486;SDS011;45298;54.918;73.504;2023-07-02T05:37:07;7.03;;;2.42;;
59486;SDS011;45298;54.918;73.504;2023-07-02T05:39:36;6.05;;;2.50;;
59486;SDS011;45298;54.918;73.504;2023-07-02T05:42:05;8.43;;;2.70;;
59486;SDS011;45298;54.918;73.504;2023-07-02T05:44:34;3.20;;;2.47;;
59486;SDS011;45298;54.918;73.504;2023-07-02T05:47:06;6.22;;;2.58;;
59486;SDS011;45298;54.918;73.504;2023-07-02T05:49:36;3.72;;;2.72;;
59486;SDS011;45298;54.918;73.504;2023-07-02T05:52:07;5.07;;;2.63;;
59486;SDS011;45298;54.918;73.504;2023-07-02T05:54:39;3.42;;;2.75;;
59486;SDS011;45298;54.918;73.504;2023-07-02T05:57:09;4.93;;;2.40;;
59486;SDS011;45298;54.918;73.504;2023-07-02T05:59:38;8.45;;;2.60;;
59486;SDS011;45298;54.918;73.504;2023-07-02T06:02:07;5.28;;;2.78;;
59486;SDS011;45298;54.918;73.504;2023-07-02T06:04:37;3.15;;;2.53;;
59486;SDS011;45298;54.918;73.504;2023-07-02T06:07:06;4.15;;;2.58;;
59486;SDS011;45298;54.918;73.504;2023-07-02T06:09:35;5.63;;;2.92;;
59486;SDS011;45298;54.918;73.504;2023-07-02T06:12:04;4.63;;;2.55;;
59486;SDS011;45298;54.918;73.504;2023-07-02T06:14:34;5.80;;;2.53;;
59486;SDS011;45298;54.918;73.504;2023-07-02T06:17:03;5.05;;;2.85;;
59486;SDS011;45298;54.918;73.504;2023-07-02T06:19:36;12.18;;;2.58;;
59486;SDS011;45298;54.918;73.504;2023-07-02T06:24:37;6.47;;;2.88;;
59486;SDS011;45298;54.918;73.504;2023-07-02T06:27:05;7.80;;;2.85;;
59486;SDS011;45298;54.918;73.504;2023-07-02T06:29:34;7.40;;;2.72;;
59486;SDS011;45298;54.918;73.504;2023-07-02T06:32:04;4.63;;;3.17;;
59486;SDS011;45298;54.918;73.504;2023-07-02T06:34:33;7.90;;;2.92;;
59486;SDS011;45298;54.918;73.504;2023-07-02T06:37:03;4.78;;;3.20;;
59486;SDS011;45298;54.918;73.504;2023-07-02T06:39:32;3.30;;;2.88;;
59486;SDS011;45298;54.918;73.504;2023-07-02T06:42:01;3.85;;;2.88;;
59486;SDS011;45298;54.918;73.504;2023-07-02T06:44:37;5.07;;;3.22;;
59486;SDS011;45298;54.918;73.504;2023-07-02T06:47:06;4.40;;;3.00;;
59486;SDS011;45298;54.918;73.504;2023-07-02T06:49:36;6.00;;;2.78;;
59486;SDS011;45298;54.918;73.504;2023-07-02T06:52:05;4.88;;;2.80;;
59486;SDS011;45298;54.918;73.504;2023-07-02T06:54:34;4.05;;;2.70;;
59486;SDS011;45298;54.918;73.504;2023-07-02T06:57:03;4.43;;;2.78;;
59486;SDS011;45298;54.918;73.504;2023-07-02T06:59:33;6.45;;;3.13;;
59486;SDS011;45298;54.918;73.504;2023-07-02T07:02:02;9.43;;;3.42;;
59486;SDS011;45298;54.918;73.504;2023-07-02T07:04:32;10.75;;;4.40;;
59486;SDS011;45298;54.918;73.504;2023-07-02T07:07:05;6.80;;;2.97;;
59486;SDS011;45298;54.918;73.504;2023-07-02T07:09:35;4.47;;;3.17;;
59486;SDS011;45298;54.918;73.504;2023-07-02T07:12:04;5.70;;;4.15;;
59486;SDS011;45298;54.918;73.504;2023-07-02T07:14:34;3.97;;;2.92;;
59486;SDS011;45298;54.918;73.504;2023-07-02T07:17:03;8.68;;;3.05;;
59486;SDS011;45298;54.918;73.504;2023-07-02T07:19:32;7.03;;;4.65;;
59486;SDS011;45298;54.918;73.504;2023-07-02T07:22:02;5.82;;;2.90;;
59486;SDS011;45298;54.918;73.504;2023-07-02T07:24:31;4.70;;;3.00;;
59486;SDS011;45298;54.918;73.504;2023-07-02T07:27:01;7.95;;;3.20;;
59486;SDS011;45298;54.918;73.504;2023-07-02T07:29:30;4.00;;;3.15;;
59486;SDS011;45298;54.918;73.504;2023-07-02T07:31:59;7.07;;;3.00;;
59486;SDS011;45298;54.918;73.504;2023-07-02T07:34:30;5.18;;;3.03;;
59486;SDS011;45298;54.918;73.504;2023-07-02T07:37:00;5.70;;;2.92;;
59486;SDS011;45298;54.918;73.504;2023-07-02T07:39:28;4.55;;;2.90;;
59486;SDS011;45298;54.918;73.504;2023-07-02T07:42:00;6.95;;;2.95;;
59486;SDS011;45298;54.918;73.504;2023-07-02T07:44:29;7.90;;;2.90;;
59486;SDS011;45298;54.918;73.504;2023-07-02T07:46:59;6.05;;;2.80;;
59486;SDS011;45298;54.918;73.504;2023-07-02T07:49:28;12.55;;;3.47;;
59486;SDS011;45298;54.918;73.504;2023-07-02T07:51:56;9.55;;;3.00;;
59486;SDS011;45298;54.918;73.504;2023-07-02T07:54:25;6.82;;;2.70;;
59486;SDS011;45298;54.918;73.504;2023-07-02T07:56:55;6.05;;;3.00;;
59486;SDS011;45298;54.918;73.504;2023-07-02T07:59:24;9.25;;;3.83;;
59486;SDS011;45298;54.918;73.504;2023-07-02T08:01:53;7.03;;;3.63;;
59486;SDS011;45298;54.918;73.504;2023-07-02T08:04:23;4.78;;;2.92;;
59486;SDS011;45298;54.918;73.504;2023-07-02T08:06:52;5.85;;;3.30;;
59486;SDS011;45298;54.918;73.504;2023-07-02T08:09:23;5.93;;;3.20;;
59486;SDS011;45298;54.918;73.504;2023-07-02T08:11:52;9.52;;;3.90;;
59486;SDS011;45298;54.918;73.504;2023-07-02T08:14:21;27.33;;;4.53;;
59486;SDS011;45298;54.918;73.504;2023-07-02T08:16:50;9.43;;;3.60;;
59486;SDS011;45298;54.918;73.504;2023-07-02T08:19:20;6.13;;;3.25;;
59486;SDS011;45298;54.918;73.504;2023-07-02T08:21:52;12.60;;;4.65;;
59486;SDS011;45298;54.918;73.504;2023-07-02T08:24:22;8.25;;;4.25;;
59486;SDS011;45298;54.918;73.504;2023-07-02T08:26:51;5.68;;;3.78;;
59486;SDS011;45298;54.918;73.504;2023-07-02T08:29:21;8.77;;;3.45;;
59486;SDS011;45298;54.918;73.504;2023-07-02T08:31:51;6.05;;;3.20;;
59486;SDS011;45298;54.918;73.504;2023-07-02T08:34:21;6.70;;;3.40;;
59486;SDS011;45298;54.918;73.504;2023-07-02T08:36:51;7.53;;;3.30;;
59486;SDS011;45298;54.918;73.504;2023-07-02T08:39:20;5.80;;;3.38;;
59486;SDS011;45298;54.918;73.504;2023-07-02T08:41:49;5.22;;;3.28;;
59486;SDS011;45298;54.918;73.504;2023-07-02T08:44:19;5.07;;;2.88;;
59486;SDS011;45298;54.918;73.504;2023-07-02T08:49:24;8.18;;;3.45;;
59486;SDS011;45298;54.918;73.504;2023-07-02T08:51:54;16.00;;;6.82;;
59486;SDS011;45298;54.918;73.504;2023-07-02T08:54:22;8.90;;;2.60;;
59486;SDS011;45298;54.918;73.504;2023-07-02T08:56:52;6.38;;;4.15;;
59486;SDS011;45298;54.918;73.504;2023-07-02T08:59:21;9.88;;;2.90;;
59486;SDS011;45298;54.918;73.504;2023-07-02T09:01:51;7.20;;;3.13;;
59486;SDS011;45298;54.918;73.504;2023-07-02T09:04:25;9.00;;;3.00;;
59486;SDS011;45298;54.918;73.504;2023-07-02T09:09:49;5.32;;;2.92;;
59486;SDS011;45298;54.918;73.504;2023-07-02T09:12:36;6.15;;;3.83;;
59486;SDS011;45298;54.918;73.504;2023-07-02T09:15:07;5.80;;;2.85;;
59486;SDS011;45298;54.918;73.504;2023-07-02T09:17:36;4.65;;;2.70;;
59486;SDS011;45298;54.918;73.504;2023-07-02T09:20:06;4.25;;;2.90;;
59486;SDS011;45298;54.918;73.504;2023-07-02T09:22:36;3.92;;;2.60;;
59486;SDS011;45298;54.918;73.504;2023-07-02T09:25:06;5.20;;;2.95;;
59486;SDS011;45298;54.918;73.504;2023-07-02T09:27:40;8.60;;;2.90;;
59486;SDS011;45298;54.918;73.504;2023-07-02T09:30:14;4.63;;;2.80;;
59486;SDS011;45298;54.918;73.504;2023-07-02T09:32:44;3.97;;;2.67;;
59486;SDS011;45298;54.918;73.504;2023-07-02T09:35:14;6.90;;;2.58;;
59486;SDS011;45298;54.918;73.504;2023-07-02T09:37:43;8.32;;;2.90;;
59486;SDS011;45298;54.918;73.504;2023-07-02T09:40:12;4.30;;;2.60;;
59486;SDS011;45298;54.918;73.504;2023-07-02T09:42:42;4.13;;;2.70;;
59486;SDS011;45298;54.918;73.504;2023-07-02T09:45:11;4.18;;;2.60;;
59486;SDS011;45298;54.918;73.504;2023-07-02T09:47:42;8.18;;;2.78;;
59486;SDS011;45298;54.918;73.504;2023-07-02T09:50:15;4.03;;;2.78;;
59486;SDS011;45298;54.918;73.504;2023-07-02T09:52:46;6.95;;;2.80;;
59486;SDS011;45298;54.918;73.504;2023-07-02T09:55:16;4.43;;;2.65;;
59486;SDS011;45298;54.918;73.504;2023-07-02T09:57:46;5.10;;;2.60;;
59486;SDS011;45298;54.918;73.504;2023-07-02T10:00:15;6.82;;;2.53;;
59486;SDS011;45298;54.918;73.504;2023-07-02T10:02:48;3.30;;;2.45;;
59486;SDS011;45298;54.918;73.504;2023-07-02T10:05:30;5.13;;;2.40;;
59486;SDS011;45298;54.918;73.504;2023-07-02T10:08:14;4.80;;;2.70;;
59486;SDS011;45298;54.918;73.504;2023-07-02T10:10:46;5.80;;;2.72;;
59486;SDS011;45298;54.918;73.504;2023-07-02T10:13:26;5.88;;;2.55;;
59486;SDS011;45298;54.918;73.504;2023-07-02T10:16:04;8.98;;;2.72;;
59486;SDS011;45298;54.918;73.504;2023-07-02T10:18:34;3.35;;;2.40;;
59486;SDS011;45298;54.918;73.504;2023-07-02T10:21:13;6.45;;;2.83;;
59486;SDS011;45298;54.918;73.504;2023-07-02T10:23:44;5.55;;;3.53;;
59486;SDS011;45298;54.918;73.504;2023-07-02T10:26:13;5.35;;;3.35;;
59486;SDS011;45298;54.918;73.504;2023-07-02T10:29:19;8.10;;;5.07;;
59486;SDS011;45298;54.918;73.504;2023-07-02T10:31:51;3.70;;;2.28;;
59486;SDS011;45298;54.918;73.504;2023-07-02T10:34:34;3.42;;;2.38;;
59486;SDS011;45298;54.918;73.504;2023-07-02T10:37:04;5.10;;;4.10;;
59486;SDS011;45298;54.918;73.504;2023-07-02T10:39:38;4.35;;;3.40;;
59486;SDS011;45298;54.918;73.504;2023-07-02T10:42:09;6.20;;;2.90;;
59486;SDS011;45298;54.918;73.504;2023-07-02T10:44:49;6.07;;;2.92;;
59486;SDS011;45298;54.918;73.504;2023-07-02T10:47:20;4.40;;;2.88;;
59486;SDS011;45298;54.918;73.504;2023-07-02T10:49:49;3.72;;;2.47;;
59486;SDS011;45298;54.918;73.504;2023-07-02T10:52:19;5.18;;;2.53;;
59486;SDS011;45298;54.918;73.504;2023-07-02T10:54:51;23.35;;;4.82;;
59486;SDS011;45298;54.918;73.504;2023-07-02T10:57:20;6.72;;;3.00;;
59486;SDS011;45298;54.918;73.504;2023-07-02T10:59:50;4.65;;;2.58;;
59486;SDS011;45298;54.918;73.504;2023-07-02T11:02:19;6.30;;;2.45;;
59486;SDS011;45298;54.918;73.504;2023-07-02T11:04:49;5.43;;;2.40;;
59486;SDS011;45298;54.918;73.504;2023-07-02T11:07:22;8.02;;;4.18;;
59486;SDS011;45298;54.918;73.504;2023-07-02T11:09:52;5.35;;;3.10;;
59486;SDS011;45298;54.918;73.504;2023-07-02T11:12:31;4.18;;;2.88;;
59486;SDS011;45298;54.918;73.504;2023-07-02T11:15:07;5.82;;;2.40;;
59486;SDS011;45298;54.918;73.504;2023-07-02T11:17:43;4.85;;;2.58;;
59486;SDS011;45298;54.918;73.504;2023-07-02T11:20:13;14.52;;;3.50;;
59486;SDS011;45298;54.918;73.504;2023-07-02T11:22:44;6.53;;;3.60;;
59486;SDS011;45298;54.918;73.504;2023-07-02T11:25:17;4.50;;;2.25;;
59486;SDS011;45298;54.918;73.504;2023-07-02T11:28:03;4.97;;;2.90;;
59486;SDS011;45298;54.918;73.504;2023-07-02T11:30:32;4.45;;;2.22;;
59486;SDS011;45298;54.918;73.504;2023-07-02T11:33:03;4.80;;;2.15;;
59486;SDS011;45298;54.918;73.504;2023-07-02T11:35:35;4.50;;;2.58;;
59486;SDS011;45298;54.918;73.504;2023-07-02T11:38:04;4.95;;;2.53;;
59486;SDS011;45298;54.918;73.504;2023-07-02T11:40:34;7.13;;;2.60;;
59486;SDS011;45298;54.918;73.504;2023-07-02T11:43:04;6.75;;;3.40;;
59486;SDS011;45298;54.918;73.504;2023-07-02T11:45:34;2.72;;;2.00;;
59486;SDS011;45298;54.918;73.504;2023-07-02T11:48:04;3.83;;;2.13;;
59486;SDS011;45298;54.918;73.504;2023-07-02T11:50:36;7.63;;;4.28;;
59486;SDS011;45298;54.918;73.504;2023-07-02T11:53:05;8.25;;;2.20;;
59486;SDS011;45298;54.918;73.504;2023-07-02T11:55:34;3.53;;;2.30;;
59486;SDS011;45298;54.918;73.504;2023-07-02T11:58:04;5.50;;;2.10;;
59486;SDS011;45298;54.918;73.504;2023-07-02T12:00:33;3.33;;;2.22;;
59486;SDS011;45298;54.918;73.504;2023-07-02T12:03:02;3.78;;;2.55;;
59486;SDS011;45298;54.918;73.504;2023-07-02T12:05:34;3.33;;;2.05;;
59486;SDS011;45298;54.918;73.504;2023-07-02T12:08:04;4.25;;;2.13;;
59486;SDS011;45298;54.918;73.504;2023-07-02T12:10:35;5.38;;;2.25;;
59486;SDS011;45298;54.918;73.504;2023-07-02T12:13:05;10.25;;;2.63;;
59486;SDS011;45298;54.918;73.504;2023-07-02T12:15:34;7.22;;;2.70;;
59486;SDS011;45298;54.918;73.504;2023-07-02T12:18:03;8.82;;;2.45;;
59486;SDS011;45298;54.918;73.504;2023-07-02T12:20:32;3.90;;;2.85;;
59486;SDS011;45298;54.918;73.504;2023-07-02T12:23:01;8.50;;;6.38;;
59486;SDS011;45298;54.918;73.504;2023-07-02T12:25:30;5.55;;;2.30;;
59486;SDS011;45298;54.918;73.504;2023-07-02T12:27:59;3.03;;;2.50;;
59486;SDS011;45298;54.918;73.504;2023-07-02T12:30:30;7.50;;;2.80;;
59486;SDS011;45298;54.918;73.504;2023-07-02T12:33:00;3.92;;;2.33;;
59486;SDS011;45298;54.918;73.504;2023-07-02T12:35:29;9.25;;;6.05;;
59486;SDS011;45298;54.918;73.504;2023-07-02T12:37:58;13.30;;;10.05;;
59486;SDS011;45298;54.918;73.504;2023-07-02T12:40:28;9.25;;;5.72;;
59486;SDS011;45298;54.918;73.504;2023-07-02T12:42:58;6.55;;;2.50;;
59486;SDS011;45298;54.918;73.504;2023-07-02T12:45:27;6.97;;;2.28;;
59486;SDS011;45298;54.918;73.504;2023-07-02T12:47:56;3.83;;;2.70;;
59486;SDS011;45298;54.918;73.504;2023-07-02T12:50:28;3.80;;;2.47;;
59486;SDS011;45298;54.918;73.504;2023-07-02T12:52:57;7.93;;;2.22;;
59486;SDS011;45298;54.918;73.504;2023-07-02T12:55:27;8.25;;;2.47;;
59486;SDS011;45298;54.918;73.504;2023-07-02T12:58:00;8.90;;;3.28;;
59486;SDS011;45298;54.918;73.504;2023-07-02T13:00:30;9.02;;;3.30;;
59486;SDS011;45298;54.918;73.504;2023-07-02T13:02:59;20.83;;;3.50;;
59486;SDS011;45298;54.918;73.504;2023-07-02T13:05:32;3.95;;;2.47;;
59486;SDS011;45298;54.918;73.504;2023-07-02T13:08:02;12.75;;;7.15;;
59486;SDS011;45298;54.918;73.504;2023-07-02T13:10:32;6.13;;;3.03;;
59486;SDS011;45298;54.918;73.504;2023-07-02T13:13:03;4.93;;;2.97;;
59486;SDS011;45298;54.918;73.504;2023-07-02T13:15:49;7.20;;;2.53;;
59486;SDS011;45298;54.918;73.504;2023-07-02T13:18:19;7.78;;;2.72;;
59486;SDS011;45298;54.918;73.504;2023-07-02T13:20:48;7.15;;;3.13;;
59486;SDS011;45298;54.918;73.504;2023-07-02T13:23:17;7.82;;;5.32;;
59486;SDS011;45298;54.918;73.504;2023-07-02T13:25:47;9.30;;;5.95;;
59486;SDS011;45298;54.918;73.504;2023-07-02T13:28:17;4.65;;;2.85;;
59486;SDS011;45298;54.918;73.504;2023-07-02T13:30:49;6.07;;;3.28;;
59486;SDS011;45298;54.918;73.504;2023-07-02T13:33:18;5.97;;;2.70;;
59486;SDS011;45298;54.918;73.504;2023-07-02T13:35:51;9.85;;;2.85;;
59486;SDS011;45298;54.918;73.504;2023-07-02T13:38:19;8.98;;;3.70;;
59486;SDS011;45298;54.918;73.504;2023-07-02T13:40:49;6.90;;;3.13;;
59486;SDS011;45298;54.918;73.504;2023-07-02T13:43:18;10.30;;;2.80;;
59486;SDS011;45298;54.918;73.504;2023-07-02T13:45:48;24.00;;;3.75;;
59486;SDS011;45298;54.918;73.504;2023-07-02T13:48:18;7.72;;;4.07;;
59486;SDS011;45298;54.918;73.504;2023-07-02T13:50:47;4.95;;;2.20;;
59486;SDS011;45298;54.918;73.504;2023-07-02T13:53:16;24.65;;;18.85;;
59486;SDS011;45298;54.918;73.504;2023-07-02T13:55:45;6.00;;;4.03;;
59486;SDS011;45298;54.918;73.504;2023-07-02T13:58:15;7.60;;;2.17;;
59486;SDS011;45298;54.918;73.504;2023-07-02T14:00:56;8.60;;;3.20;;
59486;SDS011;45298;54.918;73.504;2023-07-02T14:03:26;11.60;;;6.40;;
59486;SDS011;45298;54.918;73.504;2023-07-02T14:05:55;19.75;;;12.88;;
59486;SDS011;45298;54.918;73.504;2023-07-02T14:08:25;3.78;;;2.10;;
59486;SDS011;45298;54.918;73.504;2023-07-02T14:10:56;3.90;;;2.55;;
59486;SDS011;45298;54.918;73.504;2023-07-02T14:13:25;9.30;;;6.20;;
59486;SDS011;45298;54.918;73.504;2023-07-02T14:15:54;7.00;;;5.45;;
59486;SDS011;45298;54.918;73.504;2023-07-02T14:18:25;19.40;;;14.07;;
59486;SDS011;45298;54.918;73.504;2023-07-02T14:20:53;16.60;;;7.05;;
59486;SDS011;45298;54.918;73.504;2023-07-02T14:23:23;22.80;;;14.10;;
59486;SDS011;45298;54.918;73.504;2023-07-02T14:25:53;31.13;;;19.23;;
59486;SDS011;45298;54.918;73.504;2023-07-02T14:28:22;36.22;;;21.75;;
59486;SDS011;45298;54.918;73.504;2023-07-02T14:31:00;14.95;;;9.35;;
59486;SDS011;45298;54.918;73.504;2023-07-02T14:33:32;20.42;;;3.60;;
59486;SDS011;45298;54.918;73.504;2023-07-02T14:36:04;26.58;;;18.00;;
59486;SDS011;45298;54.918;73.504;2023-07-02T14:38:35;42.65;;;20.15;;
59486;SDS011;45298;54.918;73.504;2023-07-02T14:41:04;11.20;;;4.57;;
59486;SDS011;45298;54.918;73.504;2023-07-02T14:43:33;9.15;;;2.40;;
59486;SDS011;45298;54.918;73.504;2023-07-02T14:46:03;11.82;;;5.15;;
59486;SDS011;45298;54.918;73.504;2023-07-02T14:48:32;7.05;;;3.15;;
59486;SDS011;45298;54.918;73.504;2023-07-02T14:51:02;8.20;;;4.15;;
59486;SDS011;45298;54.918;73.504;2023-07-02T14:53:32;13.95;;;6.72;;
59486;SDS011;45298;54.918;73.504;2023-07-02T14:56:02;12.45;;;5.60;;
59486;SDS011;45298;54.918;73.504;2023-07-02T14:58:34;18.38;;;7.03;;
59486;SDS011;45298;54.918;73.504;2023-07-02T15:01:04;33.53;;;23.75;;
59486;SDS011;45298;54.918;73.504;2023-07-02T15:03:32;31.30;;;19.50;;